createdAt,value
2023-03-01T00:00:43.760Z,26.06
2023-03-01T00:03:11.083Z,26.42
2023-03-01T00:05:45.741Z,26.13
2023-03-01T00:08:16.302Z,26.75
2023-03-01T00:10:43.872Z,26.60
2023-03-01T00:13:11.021Z,25.96
2023-03-01T00:15:40.302Z,25.97
2023-03-01T00:18:07.446Z,26.90
2023-03-01T00:20:34.624Z,26.12
2023-03-01T00:23:01.890Z,26.51
2023-03-01T00:25:30.564Z,27.31
2023-03-01T00:27:57.796Z,27.34
2023-03-01T00:30:24.949Z,26.47
2023-03-01T00:32:52.048Z,27.17
2023-03-01T00:35:19.248Z,27.08
2023-03-01T00:37:46.434Z,27.52
2023-03-01T00:40:14.793Z,27.12
2023-03-01T00:42:43.459Z,27.79
2023-03-01T00:45:11.511Z,28.10
2023-03-01T00:47:38.677Z,27.83
2023-03-01T00:50:06.989Z,28.04
2023-03-01T00:52:34.409Z,28.04
2023-03-01T00:55:01.509Z,26.89
2023-03-01T00:57:28.842Z,25.70
2023-03-01T00:59:57.782Z,26.94
2023-03-01T01:02:25.056Z,27.81
2023-03-01T01:04:53.142Z,27.39
2023-03-01T01:07:20.266Z,28.45
2023-03-01T01:09:47.484Z,27.97
2023-03-01T01:12:14.654Z,24.28
2023-03-01T01:14:41.835Z,24.85
2023-03-01T01:17:10.666Z,24.70
2023-03-01T01:19:37.804Z,23.84
2023-03-01T01:22:04.917Z,23.07
2023-03-01T01:24:32.108Z,23.30
2023-03-01T01:26:59.496Z,22.10
2023-03-01T01:29:26.674Z,22.43
2023-03-01T01:31:53.857Z,23.23
2023-03-01T01:34:23.150Z,23.38
2023-03-01T01:36:51.957Z,23.31
2023-03-01T01:39:19.132Z,23.56
2023-03-01T01:41:46.286Z,24.45
2023-03-01T01:44:17.327Z,23.50
2023-03-01T01:46:49.300Z,23.41
2023-03-01T01:49:28.086Z,23.22
2023-03-01T01:52:03.006Z,23.73
2023-03-01T01:54:39.875Z,23.68
2023-03-01T01:57:13.622Z,23.49
2023-03-01T01:59:47.139Z,23.30
2023-03-01T02:02:14.973Z,23.50
2023-03-01T02:04:44.201Z,22.66
2023-03-01T02:07:17.763Z,22.56
2023-03-01T02:09:48.058Z,23.43
2023-03-01T02:12:16.318Z,23.96
2023-03-01T02:14:43.989Z,23.63
2023-03-01T02:17:14.530Z,23.91
2023-03-01T02:19:59.531Z,24.20
2023-03-01T02:22:31.420Z,23.34
2023-03-01T02:25:23.352Z,23.78
2023-03-01T02:27:59.191Z,22.62
2023-03-01T02:30:29.932Z,23.63
2023-03-01T02:33:00.314Z,22.98
2023-03-01T02:35:27.670Z,23.04
2023-03-01T02:37:54.849Z,23.70
2023-03-01T02:40:22.309Z,22.84
2023-03-01T02:42:54.875Z,23.95
2023-03-01T02:45:22.353Z,24.64
2023-03-01T02:47:51.473Z,22.99
2023-03-01T02:50:44.910Z,23.31
2023-03-01T02:53:18.531Z,23.21
2023-03-01T02:55:46.322Z,24.00
2023-03-01T02:58:13.973Z,24.11
2023-03-01T03:00:43.820Z,23.67
2023-03-01T03:03:16.418Z,24.06
2023-03-01T03:05:43.566Z,23.11
2023-03-01T03:08:10.764Z,24.30
2023-03-01T03:10:40.520Z,24.04
2023-03-01T03:13:10.729Z,23.62
2023-03-01T03:15:38.381Z,24.81
2023-03-01T03:18:09.473Z,24.16
2023-03-01T03:20:41.710Z,25.12
2023-03-01T03:23:09.902Z,25.49
2023-03-01T03:25:37.204Z,25.29
2023-03-01T03:28:05.537Z,24.36
2023-03-01T03:30:33.127Z,25.01
2023-03-01T03:33:00.990Z,24.61
2023-03-01T03:35:31.262Z,23.96
2023-03-01T03:38:02.093Z,24.24
2023-03-01T03:40:32.076Z,24.87
2023-03-01T03:42:59.258Z,24.50
2023-03-01T03:45:26.403Z,24.07
2023-03-01T03:47:53.556Z,24.16
2023-03-01T03:50:20.654Z,24.11
2023-03-01T03:52:48.373Z,24.69
2023-03-01T03:55:17.296Z,24.82
2023-03-01T03:57:44.440Z,24.43
2023-03-01T04:00:13.821Z,26.36
2023-03-01T04:02:42.397Z,24.64
2023-03-01T04:05:12.172Z,24.54
2023-03-01T04:07:40.093Z,23.55
2023-03-01T04:10:11.877Z,25.26
2023-03-01T04:12:40.596Z,25.07
2023-03-01T04:15:09.252Z,24.31
2023-03-01T04:17:36.558Z,25.80
2023-03-01T04:20:04.015Z,23.69
2023-03-01T04:22:31.297Z,25.78
2023-03-01T04:24:58.516Z,25.28
2023-03-01T04:27:25.658Z,25.31
2023-03-01T04:29:54.355Z,25.78
2023-03-01T04:32:21.463Z,25.02
2023-03-01T04:34:48.665Z,25.20
2023-03-01T04:37:15.816Z,25.50
2023-03-01T04:39:43.037Z,24.60
2023-03-01T04:42:10.177Z,25.93
2023-03-01T04:44:37.319Z,25.90
2023-03-01T04:47:05.937Z,25.09
2023-03-01T04:49:33.198Z,25.50
2023-03-01T04:52:00.400Z,24.59
2023-03-01T04:54:27.476Z,25.04
2023-03-01T04:56:55.039Z,24.98
2023-03-01T04:59:22.498Z,25.50
2023-03-01T05:01:49.676Z,24.97
2023-03-01T05:04:18.808Z,25.54
2023-03-01T05:06:45.937Z,25.97
2023-03-01T05:09:13.159Z,25.58
2023-03-01T05:11:40.636Z,25.79
2023-03-01T05:14:09.236Z,25.14
2023-03-01T05:16:37.942Z,25.34
2023-03-01T05:19:05.990Z,25.12
2023-03-01T05:21:34.618Z,25.36
2023-03-01T05:24:01.861Z,24.10
2023-03-01T05:26:29.042Z,24.63
2023-03-01T05:28:56.516Z,23.89
2023-03-01T05:31:24.144Z,25.90
2023-03-01T05:33:51.449Z,26.94
2023-03-01T05:36:18.610Z,25.62
2023-03-01T05:38:47.190Z,25.41
2023-03-01T05:41:16.294Z,26.90
2023-03-01T05:43:43.371Z,26.44
2023-03-01T05:46:10.542Z,26.02
2023-03-01T05:48:37.695Z,26.90
2023-03-01T05:51:05.238Z,29.80
2023-03-01T05:53:32.358Z,29.84
2023-03-01T05:56:01.053Z,30.46
2023-03-01T05:58:28.518Z,30.35
2023-03-01T06:00:57.227Z,30.94
2023-03-01T06:03:24.604Z,30.02
2023-03-01T06:05:57.587Z,30.35
2023-03-01T06:08:24.891Z,30.42
2023-03-01T06:10:52.072Z,31.55
2023-03-01T06:13:20.608Z,31.69
2023-03-01T06:15:47.780Z,31.29
2023-03-01T06:18:14.964Z,31.85
2023-03-01T06:20:42.200Z,31.10
2023-03-01T06:23:10.671Z,31.15
2023-03-01T06:25:38.645Z,31.62
2023-03-01T06:28:05.914Z,31.59
2023-03-01T06:30:34.754Z,31.35
2023-03-01T06:33:02.209Z,31.29
2023-03-01T06:35:30.933Z,31.65
2023-03-01T06:37:59.903Z,30.21
2023-03-01T06:40:27.802Z,29.73
2023-03-01T06:42:55.067Z,31.18
2023-03-01T06:45:22.682Z,32.05
2023-03-01T06:47:52.060Z,31.79
2023-03-01T06:50:20.001Z,31.12
2023-03-01T06:55:14.565Z,30.63
2023-03-01T06:57:41.858Z,29.97
2023-03-01T07:00:10.347Z,30.67
2023-03-01T07:02:37.545Z,29.92
2023-03-01T07:05:07.120Z,30.37
2023-03-01T07:07:34.397Z,30.83
2023-03-01T07:10:01.683Z,30.67
2023-03-01T07:12:28.884Z,30.73
2023-03-01T07:14:56.083Z,30.29
2023-03-01T07:17:23.282Z,30.76
2023-03-01T07:19:50.539Z,31.10
2023-03-01T07:22:19.288Z,30.34
2023-03-01T07:24:46.484Z,31.25
2023-03-01T07:27:13.650Z,30.33
2023-03-01T07:29:40.954Z,31.91
2023-03-01T07:32:08.710Z,31.52
2023-03-01T07:34:36.077Z,30.49
2023-03-01T07:37:03.199Z,30.23
2023-03-01T07:39:32.003Z,30.94
2023-03-01T07:41:59.118Z,30.97
2023-03-01T07:44:26.318Z,30.99
2023-03-01T07:46:53.457Z,30.50
2023-03-01T07:49:20.798Z,30.66
2023-03-01T07:51:48.079Z,31.10
2023-03-01T07:54:15.291Z,30.80
2023-03-01T07:56:43.895Z,30.87
2023-03-01T07:59:11.274Z,31.08
2023-03-01T08:01:38.516Z,30.04
2023-03-01T08:04:05.996Z,30.84
2023-03-01T08:06:35.256Z,30.22
2023-03-01T08:09:02.553Z,30.18
2023-03-01T08:11:29.771Z,30.31
2023-03-01T08:13:58.440Z,30.35
2023-03-01T08:16:26.021Z,30.28
2023-03-01T08:18:53.357Z,30.18
2023-03-01T08:21:20.635Z,29.84
2023-03-01T08:23:47.753Z,29.59
2023-03-01T08:26:17.796Z,29.80
2023-03-01T08:28:46.325Z,30.48
2023-03-01T08:31:21.443Z,30.46
2023-03-01T08:33:51.110Z,31.20
2023-03-01T08:36:19.179Z,30.48
2023-03-01T08:38:46.301Z,29.59
2023-03-01T08:41:13.674Z,29.85
2023-03-01T08:43:41.034Z,29.34
2023-03-01T08:46:08.847Z,29.31
2023-03-01T08:48:37.655Z,29.53
2023-03-01T08:51:13.566Z,30.31
2023-03-01T08:53:41.915Z,29.58
2023-03-01T08:56:10.421Z,30.16
2023-03-01T08:58:38.667Z,29.68
2023-03-01T09:01:09.343Z,28.35
2023-03-01T09:03:38.551Z,30.01
2023-03-01T09:06:07.475Z,29.17
2023-03-01T09:08:36.091Z,28.56
2023-03-01T09:11:03.938Z,28.11
2023-03-01T09:13:31.282Z,28.67
2023-03-01T09:15:58.515Z,28.49
2023-03-01T09:18:25.796Z,29.20
2023-03-01T09:20:54.476Z,28.81
2023-03-01T09:23:22.137Z,28.48
2023-03-01T09:25:49.383Z,28.36
2023-03-01T09:28:29.126Z,28.35
2023-03-01T09:31:00.174Z,28.39
2023-03-01T09:33:28.121Z,29.03
2023-03-01T09:35:59.927Z,27.92
2023-03-01T09:38:27.387Z,28.19
2023-03-01T09:40:55.422Z,27.97
2023-03-01T09:43:32.636Z,28.04
2023-03-01T09:46:06.023Z,28.28
2023-03-01T09:48:43.358Z,28.60
2023-03-01T09:51:21.078Z,28.83
2023-03-01T09:53:48.565Z,28.51
2023-03-01T09:56:23.120Z,27.85
2023-03-01T09:59:00.277Z,27.77
2023-03-01T10:01:35.099Z,27.72
2023-03-01T10:04:20.442Z,27.58
2023-03-01T10:07:02.858Z,27.18
2023-03-01T10:09:35.418Z,27.48
2023-03-01T10:12:06.084Z,27.19
2023-03-01T10:14:40.273Z,27.62
2023-03-01T10:17:21.201Z,27.69
2023-03-01T10:19:48.639Z,27.76
2023-03-01T10:22:21.659Z,27.13
2023-03-01T10:24:51.199Z,26.71
2023-03-01T10:27:24.113Z,17.42
2023-03-01T10:30:05.982Z,23.01
2023-03-01T10:32:33.820Z,25.56
2023-03-01T10:35:01.022Z,25.97
2023-03-01T10:37:29.819Z,25.86
2023-03-01T10:39:59.546Z,24.77
2023-03-01T10:42:33.462Z,26.96
2023-03-01T10:45:18.024Z,27.35
2023-03-01T10:47:46.020Z,27.67
2023-03-01T10:50:22.079Z,27.45
2023-03-01T10:53:00.923Z,28.03
2023-03-01T10:55:35.939Z,27.55
2023-03-01T10:58:19.080Z,28.28
2023-03-01T11:00:55.562Z,27.18
2023-03-01T11:03:25.785Z,27.49
2023-03-01T11:06:00.927Z,26.98
2023-03-01T11:08:39.383Z,27.24
2023-03-01T11:11:15.924Z,26.79
2023-03-01T11:13:53.366Z,27.64
2023-03-01T11:16:28.701Z,27.28
2023-03-01T11:19:02.381Z,27.78
2023-03-01T11:21:35.683Z,26.55
2023-03-01T11:24:11.386Z,25.81
2023-03-01T11:26:43.500Z,25.82
2023-03-01T11:29:26.549Z,25.70
2023-03-01T11:31:59.642Z,25.70
2023-03-01T11:34:43.557Z,25.55
2023-03-01T11:37:30.141Z,26.00
2023-03-01T11:40:12.032Z,26.35
2023-03-01T11:42:57.263Z,26.60
2023-03-01T11:45:34.961Z,25.59
2023-03-01T11:48:25.880Z,26.15
2023-03-01T11:50:55.855Z,25.86
2023-03-01T11:54:01.449Z,26.62
2023-03-01T11:56:35.576Z,26.01
2023-03-01T11:59:31.919Z,26.51
2023-03-01T12:02:32.077Z,25.91
2023-03-01T12:05:24.994Z,26.62
2023-03-01T12:08:01.840Z,26.17
2023-03-01T12:10:33.342Z,26.37
2023-03-01T12:13:32.484Z,26.10
2023-03-01T12:16:37.612Z,26.24
2023-03-01T12:19:35.436Z,26.39
2023-03-01T12:22:22.034Z,27.34
2023-03-01T12:25:19.757Z,26.42
2023-03-01T12:28:23.845Z,26.55
2023-03-01T12:31:15.511Z,26.66
2023-03-01T12:33:53.883Z,27.17
2023-03-01T12:36:45.049Z,27.36
2023-03-01T12:39:30.678Z,27.48
2023-03-01T12:42:09.538Z,26.72
2023-03-01T12:45:03.490Z,26.40
2023-03-01T12:47:57.403Z,26.73
2023-03-01T12:50:34.540Z,27.17
2023-03-01T12:53:01.738Z,26.48
2023-03-01T12:55:34.818Z,26.65
2023-03-01T12:58:14.737Z,26.70
2023-03-01T13:00:53.981Z,26.31
2023-03-01T13:03:37.096Z,26.03
2023-03-01T13:06:17.520Z,25.73
2023-03-01T13:08:56.355Z,26.22
2023-03-01T13:11:24.983Z,26.28
2023-03-01T13:13:52.353Z,26.30
2023-03-01T13:16:40.759Z,25.99
2023-03-01T13:19:15.815Z,22.37
2023-03-01T13:21:44.537Z,15.51
2023-03-01T13:24:30.539Z,19.92
2023-03-01T13:27:22.654Z,20.69
2023-03-01T13:29:52.027Z,23.79
2023-03-01T13:32:31.701Z,24.53
2023-03-01T13:35:50.516Z,24.50
2023-03-01T13:38:46.182Z,25.33
2023-03-01T13:41:14.957Z,25.37
2023-03-01T13:43:44.502Z,26.06
2023-03-01T13:46:19.622Z,25.82
2023-03-01T13:48:52.584Z,26.20
2023-03-01T13:51:26.537Z,26.37
2023-03-01T13:53:59.077Z,25.95
2023-03-01T13:56:29.554Z,26.02
2023-03-01T13:59:03.859Z,26.29
2023-03-01T14:01:33.811Z,25.71
2023-03-01T14:04:02.576Z,25.91
2023-03-01T14:06:31.946Z,25.39
2023-03-01T14:09:19.383Z,25.96
2023-03-01T14:12:22.986Z,26.88
2023-03-01T14:14:56.936Z,26.50
2023-03-01T14:17:39.944Z,25.91
2023-03-01T14:20:17.755Z,26.58
2023-03-01T14:22:47.233Z,26.48
2023-03-01T14:25:32.405Z,26.48
2023-03-01T14:28:05.929Z,25.69
2023-03-01T14:30:38.807Z,26.23
2023-03-01T14:33:20.007Z,26.47
2023-03-01T14:35:55.598Z,27.05
2023-03-01T14:38:24.313Z,26.03
2023-03-01T14:40:59.332Z,26.73
2023-03-01T14:43:27.165Z,25.44
2023-03-01T14:45:54.692Z,26.64
2023-03-01T14:48:23.435Z,26.30
2023-03-01T14:50:52.477Z,26.80
2023-03-01T14:53:24.009Z,26.95
2023-03-01T14:55:55.683Z,25.71
2023-03-01T14:58:26.197Z,25.61
2023-03-01T15:00:58.748Z,26.73
2023-03-01T15:03:32.379Z,26.70
2023-03-01T15:06:04.110Z,27.07
2023-03-01T15:08:34.278Z,26.61
2023-03-01T15:11:08.899Z,25.06
2023-03-01T15:13:37.434Z,26.32
2023-03-01T15:16:09.991Z,26.28
2023-03-01T15:18:39.081Z,26.11
2023-03-01T15:21:18.332Z,26.29
2023-03-01T15:23:53.310Z,26.07
2023-03-01T15:26:32.883Z,25.91
2023-03-01T15:29:02.561Z,25.45
2023-03-01T15:31:33.735Z,25.95
2023-03-01T15:34:22.281Z,24.99
2023-03-01T15:36:51.298Z,25.65
2023-03-01T15:39:36.076Z,25.74
2023-03-01T15:42:06.637Z,25.59
2023-03-01T15:44:43.304Z,25.35
2023-03-01T15:47:29.163Z,25.04
2023-03-01T15:49:58.530Z,24.97
2023-03-01T15:52:29.431Z,25.61
2023-03-01T15:54:58.612Z,26.28
2023-03-01T15:57:27.514Z,25.20
2023-03-01T15:59:56.042Z,26.39
2023-03-01T16:02:24.405Z,26.63
2023-03-01T16:04:52.225Z,25.18
2023-03-01T16:07:19.337Z,25.95
2023-03-01T16:09:46.663Z,26.49
2023-03-01T16:12:16.570Z,26.35
2023-03-01T16:14:45.562Z,26.17
2023-03-01T16:17:12.837Z,26.35
2023-03-01T16:19:40.522Z,26.51
2023-03-01T16:22:07.781Z,26.86
2023-03-01T16:24:34.937Z,26.98
2023-03-01T16:27:02.161Z,26.71
2023-03-01T16:29:29.358Z,26.75
2023-03-01T16:31:58.435Z,26.56
2023-03-01T16:34:26.003Z,26.68
2023-03-01T16:36:53.177Z,26.69
2023-03-01T16:39:20.505Z,27.68
2023-03-01T16:41:47.739Z,26.94
2023-03-01T16:44:15.820Z,27.14
2023-03-01T16:46:43.462Z,27.59
2023-03-01T16:49:12.164Z,27.92
2023-03-01T16:51:39.318Z,29.32
2023-03-01T16:54:06.684Z,29.12
2023-03-01T16:56:34.190Z,28.33
2023-03-01T16:59:04.404Z,28.90
2023-03-01T17:01:34.192Z,27.60
2023-03-01T17:04:01.807Z,28.00
2023-03-01T17:06:30.565Z,28.40
2023-03-01T17:08:58.512Z,28.43
2023-03-01T17:11:26.222Z,28.07
2023-03-01T17:13:53.402Z,27.96
2023-03-01T17:16:21.821Z,28.46
2023-03-01T17:18:49.580Z,28.73
2023-03-01T17:21:17.681Z,28.94
2023-03-01T17:23:47.386Z,28.67
2023-03-01T17:26:14.721Z,28.33
2023-03-01T17:28:42.438Z,29.04
2023-03-01T17:31:10.186Z,29.20
2023-03-01T17:33:37.402Z,28.66
2023-03-01T17:36:05.335Z,28.82
2023-03-01T17:38:32.678Z,29.59
2023-03-01T17:41:02.087Z,29.57
2023-03-01T17:43:30.056Z,30.02
2023-03-01T17:45:58.161Z,29.57
2023-03-01T17:48:25.460Z,29.45
2023-03-01T17:50:53.325Z,30.13
2023-03-01T17:53:20.597Z,30.79
2023-03-01T17:55:48.325Z,30.16
2023-03-01T17:58:17.056Z,29.65
2023-03-01T18:00:44.298Z,29.50
2023-03-01T18:03:11.637Z,30.52
2023-03-01T18:05:38.816Z,30.58
2023-03-01T18:08:06.165Z,29.86
2023-03-01T18:10:34.536Z,30.22
2023-03-01T18:13:01.844Z,30.34
2023-03-01T18:15:30.600Z,30.05
2023-03-01T18:17:57.880Z,30.03
2023-03-01T18:20:25.637Z,31.26
2023-03-01T18:22:52.896Z,30.62
2023-03-01T18:25:20.612Z,30.28
2023-03-01T18:27:47.777Z,30.60
2023-03-01T18:30:15.940Z,31.01
2023-03-01T18:32:44.537Z,30.59
2023-03-01T18:35:11.860Z,30.80
2023-03-01T18:37:39.070Z,31.04
2023-03-01T18:40:08.159Z,31.18
2023-03-01T18:42:35.417Z,31.24
2023-03-01T18:45:02.645Z,31.36
2023-03-01T18:47:29.843Z,31.28
2023-03-01T18:49:58.436Z,31.20
2023-03-01T18:52:25.799Z,32.19
2023-03-01T18:54:52.984Z,31.59
2023-03-01T18:57:20.241Z,31.74
2023-03-01T18:59:47.384Z,31.69
2023-03-01T19:02:14.668Z,32.44
2023-03-01T19:04:42.459Z,33.34
2023-03-01T19:07:11.229Z,33.63
2023-03-01T19:09:39.893Z,32.47
2023-03-01T19:12:07.467Z,32.24
2023-03-01T19:14:34.747Z,32.09
2023-03-01T19:17:02.036Z,32.56
2023-03-01T19:19:29.235Z,33.15
2023-03-01T19:22:05.813Z,32.49
2023-03-01T19:24:34.919Z,33.75
2023-03-01T19:27:02.268Z,32.90
2023-03-01T19:29:29.490Z,33.34
2023-03-01T19:31:56.677Z,32.47
2023-03-01T19:34:24.288Z,33.35
2023-03-01T19:36:51.689Z,32.81
2023-03-01T19:39:19.388Z,32.96
2023-03-01T19:41:49.999Z,32.95
2023-03-01T19:44:17.547Z,33.02
2023-03-01T19:46:44.697Z,33.07
2023-03-01T19:49:13.004Z,33.03
2023-03-01T19:51:40.638Z,33.16
2023-03-01T19:54:08.086Z,32.78
2023-03-01T19:56:35.826Z,32.85
2023-03-01T19:59:05.785Z,31.90
2023-03-01T20:01:34.812Z,32.84
2023-03-01T20:04:04.002Z,32.30
2023-03-01T20:06:31.936Z,31.44
2023-03-01T20:09:02.307Z,31.63
2023-03-01T20:11:33.765Z,33.35
2023-03-01T20:14:01.040Z,33.03
2023-03-01T20:16:30.037Z,33.35
2023-03-01T20:18:59.988Z,33.10
2023-03-01T20:21:27.470Z,32.29
2023-03-01T20:23:55.675Z,32.81
2023-03-01T20:26:23.748Z,32.81
2023-03-01T20:28:54.389Z,32.60
2023-03-01T20:31:23.855Z,32.71
2023-03-01T20:33:54.628Z,32.95
2023-03-01T20:36:21.794Z,32.57
2023-03-01T20:38:48.915Z,32.37
2023-03-01T20:41:16.029Z,32.62
2023-03-01T20:43:43.286Z,32.09
2023-03-01T20:46:12.989Z,32.36
2023-03-01T20:48:41.914Z,32.10
2023-03-01T20:51:13.252Z,32.44
2023-03-01T20:53:41.172Z,32.93
2023-03-01T20:56:11.213Z,32.70
2023-03-01T20:58:39.393Z,33.69
2023-03-01T21:01:08.478Z,32.62
2023-03-01T21:03:36.358Z,32.41
2023-03-01T21:06:06.295Z,33.40
2023-03-01T21:08:36.968Z,33.21
2023-03-01T21:11:07.051Z,32.66
2023-03-01T21:13:35.923Z,32.93
2023-03-01T21:16:06.042Z,32.04
2023-03-01T21:18:34.662Z,33.20
2023-03-01T21:21:05.583Z,32.28
2023-03-01T21:23:36.588Z,32.73
2023-03-01T21:26:06.184Z,33.29
2023-03-01T21:28:34.585Z,32.78
2023-03-01T21:31:06.447Z,33.16
2023-03-01T21:33:33.685Z,33.48
2023-03-01T21:36:02.441Z,34.34
2023-03-01T21:38:31.399Z,34.27
2023-03-01T21:41:04.281Z,34.65
2023-03-01T21:43:31.361Z,34.23
2023-03-01T21:46:01.988Z,34.02
2023-03-01T21:48:29.381Z,31.29
2023-03-01T21:50:56.753Z,18.94
2023-03-01T21:53:24.597Z,24.77
2023-03-01T21:55:52.517Z,27.37
2023-03-01T21:58:21.638Z,29.01
2023-03-01T22:00:50.597Z,31.03
2023-03-01T22:03:18.176Z,31.72
2023-03-01T22:05:54.992Z,32.25
2023-03-01T22:08:22.291Z,33.70
2023-03-01T22:10:49.503Z,33.86
2023-03-01T22:13:17.078Z,32.73
2023-03-01T22:15:46.251Z,33.58
2023-03-01T22:18:14.508Z,33.28
2023-03-01T22:20:42.489Z,34.21
2023-03-01T22:23:10.007Z,33.76
2023-03-01T22:25:42.211Z,33.79
2023-03-01T22:28:09.695Z,34.42
2023-03-01T22:30:36.941Z,34.58
2023-03-01T22:33:06.155Z,34.61
2023-03-01T22:35:33.386Z,33.58
2023-03-01T22:38:00.616Z,33.64
2023-03-01T22:40:28.028Z,34.12
2023-03-01T22:42:56.018Z,34.43
2023-03-01T22:45:23.278Z,34.45
2023-03-01T22:47:50.485Z,32.94
2023-03-01T22:50:20.559Z,34.36
2023-03-01T22:52:47.679Z,34.68
2023-03-01T22:55:14.983Z,34.62
2023-03-01T22:57:42.279Z,34.17
2023-03-01T23:00:11.340Z,33.64
2023-03-01T23:02:38.516Z,34.54
2023-03-01T23:05:06.540Z,34.07
2023-03-01T23:07:35.777Z,34.20
2023-03-01T23:10:03.015Z,33.53
2023-03-01T23:12:31.134Z,33.86
2023-03-01T23:14:58.437Z,33.91
2023-03-01T23:17:25.694Z,34.03
2023-03-01T23:19:52.771Z,34.04
2023-03-01T23:22:20.257Z,34.77
2023-03-01T23:24:48.993Z,34.30
2023-03-01T23:27:16.758Z,34.21
2023-03-01T23:29:44.859Z,34.50
2023-03-01T23:32:12.243Z,33.60
2023-03-01T23:34:39.413Z,33.37
2023-03-01T23:37:06.653Z,33.12
2023-03-01T23:39:33.866Z,33.34
2023-03-01T23:42:02.733Z,33.30
2023-03-01T23:44:29.917Z,32.94
2023-03-01T23:46:57.054Z,32.62
2023-03-01T23:49:24.240Z,32.65
2023-03-01T23:51:51.947Z,32.98
2023-03-01T23:54:22.141Z,32.21
2023-03-01T23:56:49.612Z,32.52
2023-03-01T23:59:21.333Z,32.38
